createdAt,value
2018-02-03T00:01:53.293Z,15.94
2018-02-03T00:04:20.858Z,15.95
2018-02-03T00:06:48.500Z,15.93
2018-02-03T00:09:16.037Z,15.94
2018-02-03T00:11:43.608Z,15.93
2018-02-03T00:14:11.302Z,15.94
2018-02-03T00:16:38.849Z,15.63
2018-02-03T00:19:09.182Z,15.95
2018-02-03T00:21:40.699Z,15.95
2018-02-03T00:24:08.489Z,15.95
2018-02-03T00:26:36.087Z,15.95
2018-02-03T00:29:03.622Z,15.95
2018-02-03T00:31:31.301Z,15.96
2018-02-03T00:33:58.839Z,15.96
2018-02-03T00:36:26.384Z,15.97
2018-02-03T00:38:53.914Z,15.97
2018-02-03T00:41:21.448Z,15.95
2018-02-03T00:43:48.994Z,15.70
2018-02-03T00:46:16.532Z,15.96
2018-02-03T00:48:49.533Z,15.95
2018-02-03T00:51:21.134Z,15.97
2018-02-03T00:53:56.457Z,15.97
2018-02-03T00:56:24.152Z,15.97
2018-02-03T00:58:51.771Z,15.96
2018-02-03T01:01:19.567Z,15.96
2018-02-03T01:03:47.089Z,15.96
2018-02-03T01:06:14.622Z,15.96
2018-02-03T01:08:42.163Z,15.97
2018-02-03T01:11:09.772Z,15.96
2018-02-03T01:13:37.329Z,15.98
2018-02-03T01:16:04.898Z,15.97
2018-02-03T01:18:32.547Z,15.97
2018-02-03T01:21:00.094Z,15.98
2018-02-03T01:23:27.620Z,15.98
2018-02-03T01:25:55.149Z,15.98
2018-02-03T01:28:22.684Z,15.96
2018-02-03T01:30:50.214Z,15.97
2018-02-03T01:33:17.744Z,15.97
2018-02-03T01:35:45.287Z,16.00
2018-02-03T01:38:12.802Z,15.99
2018-02-03T01:40:40.329Z,15.98
2018-02-03T01:43:07.872Z,15.98
2018-02-03T01:45:35.393Z,15.90
2018-02-03T01:48:03.037Z,15.97
2018-02-03T01:50:30.579Z,15.97
2018-02-03T01:52:58.119Z,15.96
2018-02-03T01:55:25.641Z,15.99
2018-02-03T01:57:53.297Z,15.99
2018-02-03T02:00:20.840Z,15.99
2018-02-03T02:02:48.373Z,15.99
2018-02-03T02:05:16.043Z,16.00
2018-02-03T02:07:43.548Z,16.01
2018-02-03T02:10:11.090Z,16.01
2018-02-03T02:12:38.650Z,16.01
2018-02-03T02:15:06.189Z,16.01
2018-02-03T02:17:33.701Z,15.99
2018-02-03T02:20:01.222Z,15.98
2018-02-03T02:22:28.883Z,16.00
2018-02-03T02:24:56.413Z,16.01
2018-02-03T02:27:23.954Z,16.01
2018-02-03T02:29:51.497Z,16.02
2018-02-03T02:32:19.024Z,16.01
2018-02-03T02:34:46.564Z,16.03
2018-02-03T02:37:14.106Z,16.02
2018-02-03T02:39:41.615Z,16.03
2018-02-03T02:42:09.277Z,16.04
2018-02-03T02:44:36.814Z,16.03
2018-02-03T02:47:04.345Z,16.03
2018-02-03T02:49:31.862Z,16.03
2018-02-03T02:51:59.395Z,16.04
2018-02-03T02:54:27.073Z,16.03
2018-02-03T02:56:54.624Z,16.03
2018-02-03T02:59:22.274Z,16.02
2018-02-03T03:01:49.813Z,16.03
2018-02-03T03:04:17.349Z,16.04
2018-02-03T03:06:44.991Z,16.05
2018-02-03T03:09:25.217Z,16.03
2018-02-03T03:11:54.319Z,16.03
2018-02-03T03:14:22.841Z,16.03
2018-02-03T03:16:55.626Z,16.02
2018-02-03T03:19:23.211Z,16.02
2018-02-03T03:21:50.820Z,16.02
2018-02-03T03:24:18.358Z,16.02
2018-02-03T03:29:24.962Z,16.01
2018-02-03T03:31:54.780Z,16.02
2018-02-03T03:34:24.168Z,16.01
2018-02-03T03:37:00.054Z,15.99
2018-02-03T03:39:27.705Z,16.01
2018-02-03T03:41:55.235Z,15.99
2018-02-03T03:44:22.762Z,15.99
2018-02-03T03:46:50.295Z,16.00
2018-02-03T03:49:17.866Z,16.00
2018-02-03T03:51:45.409Z,15.99
2018-02-03T03:54:13.159Z,16.00
2018-02-03T03:56:40.707Z,15.93
2018-02-03T03:59:08.259Z,16.01
2018-02-03T04:01:35.853Z,16.01
2018-02-03T04:04:03.396Z,16.01
2018-02-03T04:06:31.050Z,16.00
2018-02-03T04:08:58.844Z,15.98
2018-02-03T04:11:26.424Z,15.87
2018-02-03T04:13:53.979Z,15.97
2018-02-03T04:16:21.553Z,16.00
2018-02-03T04:18:49.192Z,16.00
2018-02-03T04:21:16.785Z,15.92
2018-02-03T04:23:44.511Z,16.01
2018-02-03T04:26:12.062Z,15.99
2018-02-03T04:28:39.716Z,15.98
2018-02-03T04:31:07.417Z,15.99
2018-02-03T04:33:34.944Z,15.97
2018-02-03T04:36:02.470Z,15.98
2018-02-03T04:38:30.035Z,15.99
2018-02-03T04:40:57.591Z,15.99
2018-02-03T04:43:25.135Z,15.90
2018-02-03T04:45:52.692Z,15.98
2018-02-03T04:48:20.346Z,15.98
2018-02-03T04:50:47.943Z,15.97
2018-02-03T04:53:15.552Z,15.97
2018-02-03T04:55:43.112Z,15.98
2018-02-03T04:58:10.705Z,15.99
2018-02-03T05:00:38.399Z,15.99
2018-02-03T05:03:05.930Z,15.98
2018-02-03T05:05:33.506Z,15.99
2018-02-03T05:08:01.053Z,15.99
2018-02-03T05:10:28.622Z,15.99
2018-02-03T05:12:56.334Z,15.95
2018-02-03T05:15:23.920Z,16.00
2018-02-03T05:17:51.474Z,15.98
2018-02-03T05:20:19.057Z,15.98
2018-02-03T05:22:46.694Z,15.99
2018-02-03T05:25:14.482Z,15.98
2018-02-03T05:27:42.000Z,15.98
2018-02-03T05:30:09.720Z,15.96
2018-02-03T05:32:37.234Z,15.97
2018-02-03T05:35:04.787Z,15.97
2018-02-03T05:37:32.331Z,15.97
2018-02-03T05:39:59.880Z,15.97
2018-02-03T05:42:27.411Z,15.95
2018-02-03T05:44:54.959Z,15.95
2018-02-03T05:47:22.597Z,15.94
2018-02-03T05:52:32.152Z,15.91
2018-02-03T05:54:59.671Z,15.88
2018-02-03T05:57:27.328Z,15.84
2018-02-03T05:59:54.858Z,15.85
2018-02-03T06:02:22.373Z,15.85
2018-02-03T06:04:49.895Z,15.92
2018-02-03T06:07:17.442Z,15.99
2018-02-03T06:09:44.981Z,16.05
2018-02-03T06:12:12.641Z,16.07
2018-02-03T06:14:40.170Z,16.09
2018-02-03T06:17:07.691Z,16.36
2018-02-03T06:19:35.235Z,16.49
2018-02-03T06:22:05.458Z,16.48
2018-02-03T06:24:33.161Z,16.45
2018-02-03T06:27:00.704Z,16.45
2018-02-03T06:29:28.384Z,16.58
2018-02-03T06:31:56.045Z,16.59
2018-02-03T06:34:23.574Z,16.48
2018-02-03T06:36:51.122Z,16.50
2018-02-03T06:39:18.673Z,16.77
2018-02-03T06:41:46.246Z,16.68
2018-02-03T06:44:13.894Z,16.61
2018-02-03T06:46:41.461Z,16.51
2018-02-03T06:49:08.991Z,16.45
2018-02-03T06:51:36.515Z,16.32
2018-02-03T06:54:04.078Z,16.19
2018-02-03T06:56:31.737Z,15.97
2018-02-03T06:58:59.267Z,15.88
2018-02-03T07:01:26.910Z,15.78
2018-02-03T07:03:54.444Z,15.72
2018-02-03T07:06:21.983Z,15.60
2018-02-03T07:08:49.503Z,15.60
2018-02-03T07:11:17.018Z,15.53
2018-02-03T07:13:44.674Z,15.46
2018-02-03T07:16:12.185Z,15.30
2018-02-03T07:18:39.748Z,15.31
2018-02-03T07:21:07.286Z,15.37
2018-02-03T07:23:34.808Z,15.25
2018-02-03T07:26:02.379Z,15.16
2018-02-03T07:28:29.928Z,15.17
2018-02-03T07:30:57.633Z,15.20
2018-02-03T07:33:25.190Z,15.23
2018-02-03T08:43:01.244Z,22.46
2018-02-03T08:45:28.824Z,23.51
2018-02-03T08:47:56.355Z,24.15
2018-02-03T08:50:23.877Z,24.58
2018-02-03T18:42:43.966Z,21.63
2018-02-03T18:48:19.879Z,21.64
2018-02-03T18:50:48.158Z,22.18
2018-02-03T18:53:16.534Z,22.23
2018-02-03T18:55:45.221Z,22.32
2018-02-03T18:58:15.133Z,22.46
2018-02-03T19:00:43.523Z,22.56
2018-02-03T19:03:12.198Z,22.59
2018-02-03T19:05:40.437Z,22.60
2018-02-03T19:08:09.266Z,22.29
2018-02-03T19:10:38.571Z,22.42
2018-02-03T19:13:06.942Z,22.57
2018-02-03T19:15:35.217Z,22.71
2018-02-03T19:18:03.703Z,22.77
2018-02-03T19:20:32.382Z,22.92
2018-02-03T19:23:00.711Z,22.64
2018-02-03T19:25:29.453Z,22.21
2018-02-03T19:27:57.826Z,22.30
2018-02-03T19:30:26.086Z,22.26
2018-02-03T19:32:54.578Z,22.51
2018-02-03T19:35:23.370Z,22.57
2018-02-03T19:37:51.932Z,22.74
2018-02-03T19:40:20.002Z,22.95
2018-02-03T19:42:48.706Z,23.06
2018-02-03T19:45:17.499Z,23.12
2018-02-03T19:47:45.870Z,23.18
2018-02-03T19:50:14.354Z,23.24
2018-02-03T19:52:42.609Z,23.30
2018-02-03T19:55:11.106Z,23.39
2018-02-03T19:57:39.486Z,23.47
2018-02-03T20:00:07.948Z,23.52
2018-02-03T20:02:36.451Z,23.56
2018-02-03T20:05:05.031Z,23.10
2018-02-03T20:07:33.338Z,22.75
2018-02-03T20:10:02.059Z,22.33
2018-02-03T20:12:30.679Z,22.14
2018-02-03T20:16:13.634Z,21.94
2018-02-03T20:18:41.618Z,20.71
2018-02-03T20:21:09.574Z,19.67
2018-02-03T20:23:38.018Z,18.85
2018-02-03T20:26:06.225Z,18.25
2018-02-03T20:28:34.879Z,17.88
2018-02-03T20:31:03.978Z,17.62
2018-02-03T20:33:32.658Z,17.41
2018-02-03T20:36:01.442Z,17.26
2018-02-03T20:38:29.827Z,17.17
2018-02-03T20:40:57.815Z,17.08
2018-02-03T20:43:25.798Z,17.02
2018-02-03T22:55:15.021Z,15.95
2018-02-03T22:57:44.996Z,16.09
2018-02-03T23:00:17.704Z,16.25
2018-02-03T23:02:52.236Z,16.36
2018-02-03T23:05:21.496Z,16.45
2018-02-03T23:07:51.353Z,16.52
2018-02-03T23:10:20.040Z,16.57
2018-02-03T23:12:48.915Z,16.62
2018-02-03T23:15:17.741Z,16.67
2018-02-03T23:17:46.800Z,16.68
2018-02-03T23:20:15.692Z,16.70
2018-02-03T23:22:45.282Z,16.72
2018-02-03T23:25:13.891Z,16.73
2018-02-03T23:27:44.171Z,16.74
2018-02-03T23:30:13.198Z,16.74
2018-02-03T23:32:42.196Z,16.74
2018-02-03T23:35:11.078Z,16.75
2018-02-03T23:37:39.924Z,16.72
2018-02-03T23:40:08.961Z,16.74
2018-02-03T23:42:38.156Z,16.76
2018-02-03T23:45:07.999Z,16.77
2018-02-03T23:47:36.442Z,16.78
2018-02-03T23:50:05.134Z,16.76
2018-02-03T23:52:34.131Z,16.73
2018-02-03T23:55:02.980Z,16.75
2018-02-03T23:57:32.200Z,16.74
